Terminal Aerodrome Forecast
Issued by NWS Lubbock, TX

Home | Current Version | Previous Version | Text Only | Print | Product List | Glossary On
Versions: 1 2 3 4 5 6 7 8 9 10 11 12 13 14 15 16 17 18 19
000
FTUS44 KLUB 290500
TAFLBB
TAF
KLBB 290521Z 2906/3006 25008KT P6SM SCT150 WS004/22040KT
     FM291000 32010KT P6SM SKC
     FM300200 03015KT P6SM FEW020=

USA.gov is the U.S. government's official web portal to all federal, state and local government web resources and services.